Time;durP1;ratioP1;P1;durP2;ratioP2;P2;SDS_P1;SDS_P2;PMS_P1;PMS_P2;Temp;Humidity;BMP_temperature;BMP_pressure;BME280_temperature;BME280_humidity;BME280_pressure;Samples;Min_cycle;Max_cycle;Signal;HPM_P1;HPM_P2
2021/06/15 00:00:12;;;;;;;4.90;4.30;;;17.40;99.90;;;;;;5056161;28;20467;-81
2021/06/15 00:02:39;;;;;;;4.30;3.90;;;17.40;99.90;;;;;;5055006;28;20473;-81
2021/06/15 00:05:09;;;;;;;3.23;3.03;;;17.40;99.90;;;;;;5055359;28;20450;-81
2021/06/15 00:07:36;;;;;;;4.40;4.07;;;17.30;99.90;;;;;;5055357;28;20448;-81
2021/06/15 00:10:06;;;;;;;3.77;3.20;;;17.30;99.90;;;;;;5055026;28;20437;-81
2021/06/15 00:12:33;;;;;;;4.50;3.63;;;17.20;99.90;;;;;;5055067;28;20856;-81
2021/06/15 00:14:59;;;;;;;4.67;3.70;;;17.20;99.90;;;;;;5054633;28;20430;-81
2021/06/15 00:17:26;;;;;;;7.20;3.70;;;17.20;99.90;;;;;;5055111;28;20519;-81
2021/06/15 00:19:53;;;;;;;3.53;3.23;;;17.20;99.90;;;;;;5054924;28;20785;-81
2021/06/15 00:22:21;;;;;;;4.23;3.83;;;17.10;99.90;;;;;;5054954;28;20458;-81
2021/06/15 00:24:48;;;;;;;7.10;3.97;;;17.10;99.90;;;;;;5055337;28;20445;-81
2021/06/15 00:27:15;;;;;;;4.03;3.60;;;17.10;99.90;;;;;;5054959;28;20458;-81
2021/06/15 00:29:42;;;;;;;4.40;4.00;;;17.00;99.90;;;;;;5055598;28;20459;-80
2021/06/15 00:32:09;;;;;;;3.47;3.27;;;17.00;99.90;;;;;;5055076;28;20520;-81
2021/06/15 00:34:36;;;;;;;4.03;3.20;;;17.00;99.90;;;;;;5054963;28;20446;-82
2021/06/15 00:37:03;;;;;;;4.80;3.77;;;16.90;99.90;;;;;;5054834;28;20434;-82
2021/06/15 00:39:31;;;;;;;3.37;3.13;;;16.90;99.90;;;;;;5054240;28;20484;-82
2021/06/15 00:41:58;;;;;;;4.27;3.90;;;16.90;99.90;;;;;;5054680;28;20468;-82
2021/06/15 00:44:25;;;;;;;4.00;3.70;;;16.90;99.90;;;;;;5054603;28;20804;-82
2021/06/15 00:46:53;;;;;;;4.93;3.73;;;16.80;99.90;;;;;;5054570;28;20446;-81
2021/06/15 00:49:25;;;;;;;4.80;3.50;;;16.70;99.90;;;;;;5054451;28;20446;-81
2021/06/15 00:51:52;;;;;;;5.33;3.40;;;16.80;99.90;;;;;;5054411;28;20493;-81
2021/06/15 00:54:19;;;;;;;3.87;3.57;;;16.70;99.90;;;;;;5054455;28;20430;-82
2021/06/15 00:56:47;;;;;;;3.97;3.10;;;16.70;99.90;;;;;;5054370;28;20446;-81
2021/06/15 00:59:14;;;;;;;3.87;3.57;;;16.60;99.90;;;;;;5054353;28;20438;-81
2021/06/15 01:01:41;;;;;;;3.90;3.70;;;16.60;99.90;;;;;;5053919;28;20843;-82
2021/06/15 01:04:08;;;;;;;4.10;3.80;;;16.50;99.90;;;;;;5053870;28;20799;-82
2021/06/15 01:06:49;;;;;;;4.47;4.07;;;16.50;99.90;;;;;;5054146;28;20458;-82
2021/06/15 01:09:27;;;;;;;4.70;3.80;;;16.50;99.90;;;;;;5054190;28;20801;-81
2021/06/15 01:12:03;;;;;;;3.60;3.30;;;16.40;99.90;;;;;;5054057;28;20481;-81
2021/06/15 01:14:55;;;;;;;5.20;3.93;;;16.40;99.90;;;;;;5053794;28;20810;-82
2021/06/15 01:17:29;;;;;;;4.03;3.57;;;16.40;99.90;;;;;;5053839;28;20411;-82
2021/06/15 01:20:11;;;;;;;4.43;4.03;;;16.40;99.90;;;;;;5053975;28;20430;-81
2021/06/15 01:22:48;;;;;;;3.60;3.30;;;16.50;99.90;;;;;;5053629;28;20454;-81
2021/06/15 01:25:23;;;;;;;3.63;3.03;;;16.50;99.90;;;;;;5053120;28;20434;-81
2021/06/15 01:27:55;;;;;;;5.23;3.60;;;16.40;99.90;;;;;;5054274;28;20832;-82
2021/06/15 01:30:24;;;;;;;4.50;3.40;;;16.50;99.90;;;;;;5053577;28;20773;-82
2021/06/15 01:32:55;;;;;;;7.43;3.70;;;16.50;99.90;;;;;;5053573;28;20489;-82
2021/06/15 01:35:24;;;;;;;5.13;3.77;;;16.50;99.90;;;;;;5053722;28;20445;-82
2021/06/15 01:37:56;;;;;;;4.00;3.60;;;16.50;99.90;;;;;;5054364;28;20445;-82
2021/06/15 01:40:27;;;;;;;4.40;4.07;;;16.40;99.90;;;;;;5053211;28;20485;-82
2021/06/15 01:42:58;;;;;;;3.93;3.60;;;16.40;99.90;;;;;;5053253;28;20473;-82
2021/06/15 01:45:29;;;;;;;5.13;4.00;;;16.40;99.90;;;;;;5053569;28;20434;-82
2021/06/15 01:48:05;;;;;;;4.10;3.70;;;16.40;99.90;;;;;;5053552;28;20414;-82
2021/06/15 01:50:34;;;;;;;4.10;3.80;;;16.30;99.90;;;;;;5053537;28;20829;-81
2021/06/15 01:53:02;;;;;;;3.47;3.17;;;16.30;99.90;;;;;;5053304;28;20489;-82
2021/06/15 01:55:30;;;;;;;5.37;3.90;;;16.20;99.90;;;;;;5053385;28;20449;-82
2021/06/15 01:57:59;;;;;;;4.00;3.60;;;16.20;99.90;;;;;;5053354;28;20452;-82
2021/06/15 02:00:27;;;;;;;4.27;3.60;;;16.30;99.90;;;;;;5053326;28;20445;-82
2021/06/15 02:02:54;;;;;;;4.20;3.57;;;16.30;99.90;;;;;;5053289;28;20466;-81
2021/06/15 02:05:36;;;;;;;5.17;3.53;;;16.20;99.90;;;;;;5052994;28;20456;-81
2021/06/15 02:08:05;;;;;;;4.30;3.93;;;16.30;99.90;;;;;;5053311;28;20434;-81
2021/06/15 02:10:35;;;;;;;8.10;4.10;;;16.30;99.90;;;;;;5053203;28;20441;-81
2021/06/15 02:13:04;;;;;;;4.43;3.40;;;16.30;99.90;;;;;;5053060;28;20481;-81
2021/06/15 02:15:34;;;;;;;4.00;3.70;;;16.20;99.90;;;;;;5053164;28;20446;-81
2021/06/15 02:18:01;;;;;;;4.33;3.93;;;16.20;99.90;;;;;;5053198;28;20457;-81
2021/06/15 02:20:34;;;;;;;3.67;3.37;;;16.20;99.90;;;;;;5052945;28;20415;-81
2021/06/15 02:23:03;;;;;;;6.53;3.60;;;16.10;99.90;;;;;;5053064;28;20466;-81
2021/06/15 02:25:34;;;;;;;4.47;4.07;;;16.10;99.90;;;;;;5053362;28;20795;-82
2021/06/15 02:28:00;;;;;;;6.77;3.60;;;16.10;99.90;;;;;;5052796;28;20426;-82
2021/06/15 02:30:29;;;;;;;3.77;3.40;;;16.00;99.90;;;;;;5053058;28;20457;-81
2021/06/15 02:33:01;;;;;;;3.90;3.60;;;15.90;99.90;;;;;;5052899;28;20486;-81
2021/06/15 02:35:28;;;;;;;4.13;3.83;;;15.90;99.90;;;;;;5052675;28;20913;-81
2021/06/15 02:38:02;;;;;;;4.77;4.37;;;15.90;99.90;;;;;;5055637;28;20438;-81
2021/06/15 02:40:30;;;;;;;4.57;4.17;;;15.80;99.90;;;;;;5056491;28;20496;-82
2021/06/15 02:42:58;;;;;;;5.30;4.00;;;15.80;99.90;;;;;;5056529;28;21001;-82
2021/06/15 02:45:31;;;;;;;5.50;4.13;;;15.80;99.90;;;;;;5056864;28;20445;-82
2021/06/15 02:48:02;;;;;;;4.27;3.30;;;15.70;99.90;;;;;;5056544;28;20445;-82
2021/06/15 02:50:31;;;;;;;5.03;4.60;;;15.70;99.90;;;;;;5056597;28;20428;-81
2021/06/15 02:53:04;;;;;;;4.50;4.10;;;15.60;99.90;;;;;;5056288;28;20481;-81
2021/06/15 02:55:33;;;;;;;4.60;3.97;;;15.60;99.90;;;;;;5056688;28;20437;-82
2021/06/15 02:58:00;;;;;;;4.53;3.80;;;15.60;99.90;;;;;;5056663;28;20513;-82
2021/06/15 03:00:29;;;;;;;4.60;4.20;;;15.50;99.90;;;;;;5056626;28;20792;-82
2021/06/15 03:02:56;;;;;;;4.50;3.93;;;15.50;99.90;;;;;;5056661;28;20843;-82
2021/06/15 03:05:23;;;;;;;4.03;3.63;;;15.50;99.90;;;;;;5056206;28;20964;-82
2021/06/15 03:07:50;;;;;;;6.73;4.07;;;15.50;99.90;;;;;;5056228;28;20442;-82
2021/06/15 03:10:18;;;;;;;4.93;4.30;;;15.50;99.90;;;;;;5056469;28;20430;-82
2021/06/15 03:12:50;;;;;;;3.47;3.27;;;15.50;99.90;;;;;;5056234;28;20494;-82
2021/06/15 03:15:20;;;;;;;5.23;4.37;;;15.50;99.90;;;;;;5056386;28;20430;-81
2021/06/15 03:17:53;;;;;;;4.50;4.10;;;15.50;99.90;;;;;;5056334;28;20452;-82
2021/06/15 03:20:25;;;;;;;4.57;3.63;;;15.50;99.90;;;;;;5056158;28;20410;-82
2021/06/15 03:22:57;;;;;;;4.40;3.83;;;15.40;99.90;;;;;;5056202;28;20547;-82
2021/06/15 03:25:29;;;;;;;4.13;3.83;;;15.50;99.90;;;;;;5056175;28;20444;-82
2021/06/15 03:28:00;;;;;;;4.20;3.67;;;15.50;99.90;;;;;;5055996;28;20949;-81
2021/06/15 03:30:27;;;;;;;4.43;4.03;;;15.50;99.90;;;;;;5055873;28;20430;-81
2021/06/15 03:33:00;;;;;;;3.87;3.53;;;15.50;99.90;;;;;;5055869;28;20496;-81
2021/06/15 03:35:29;;;;;;;3.67;3.47;;;15.50;99.90;;;;;;5055975;28;20432;-82
2021/06/15 03:38:00;;;;;;;4.43;3.40;;;15.50;99.90;;;;;;5055675;28;20792;-82
2021/06/15 03:40:29;;;;;;;5.27;4.27;;;15.50;99.90;;;;;;5055436;28;20477;-81
2021/06/15 03:42:57;;;;;;;4.40;4.10;;;15.50;99.90;;;;;;5055462;28;20993;-81
2021/06/15 03:45:27;;;;;;;5.60;4.30;;;15.60;99.90;;;;;;5055735;28;20453;-81
2021/06/15 03:47:56;;;;;;;4.27;3.87;;;15.60;99.90;;;;;;5054832;28;20434;-81
2021/06/15 03:50:24;;;;;;;4.60;4.10;;;15.60;99.90;;;;;;5055506;28;20429;-81
2021/06/15 03:52:55;;;;;;;3.93;3.47;;;15.60;99.90;;;;;;5055216;28;20482;-81
2021/06/15 03:55:25;;;;;;;6.53;3.67;;;15.70;99.90;;;;;;5055598;28;20448;-81
2021/06/15 03:57:54;;;;;;;4.10;3.80;;;15.80;99.90;;;;;;5055597;28;20438;-81
2021/06/15 04:00:24;;;;;;;3.80;3.43;;;15.80;99.90;;;;;;5055234;28;20434;-81
2021/06/15 04:02:54;;;;;;;4.93;3.90;;;15.90;99.90;;;;;;5055388;28;20470;-81
2021/06/15 04:05:26;;;;;;;3.53;3.33;;;15.90;99.90;;;;;;5055402;28;20525;-81
2021/06/15 04:07:55;;;;;;;4.40;3.70;;;15.90;99.90;;;;;;5055401;28;20438;-81
2021/06/15 04:10:23;;;;;;;5.80;5.20;;;16.00;99.90;;;;;;5054974;28;20441;-81
2021/06/15 04:12:52;;;;;;;4.07;3.73;;;16.00;99.90;;;;;;5054769;28;20995;-81
2021/06/15 04:15:19;;;;;;;4.63;3.90;;;16.00;99.90;;;;;;5054868;28;20831;-81
2021/06/15 04:17:50;;;;;;;4.50;4.10;;;16.10;99.90;;;;;;5055141;28;20457;-81
2021/06/15 04:20:21;;;;;;;4.93;4.40;;;16.10;99.90;;;;;;5054837;28;20968;-81
2021/06/15 04:22:50;;;;;;;4.60;4.20;;;16.10;99.90;;;;;;5054773;28;20469;-81
2021/06/15 04:25:20;;;;;;;3.50;3.30;;;16.20;99.90;;;;;;5054768;28;20487;-81
2021/06/15 04:27:48;;;;;;;5.70;5.20;;;16.10;99.90;;;;;;5055227;28;20540;-81
2021/06/15 04:30:16;;;;;;;4.93;4.50;;;16.10;99.90;;;;;;5054965;28;20782;-81
2021/06/15 04:32:49;;;;;;;7.57;4.70;;;16.10;99.90;;;;;;5055524;28;20496;-81
2021/06/15 04:35:20;;;;;;;4.67;4.27;;;16.10;99.90;;;;;;5054513;28;20438;-81
2021/06/15 04:37:50;;;;;;;4.77;4.30;;;16.10;99.90;;;;;;5054876;28;20414;-81
2021/06/15 04:40:23;;;;;;;5.07;4.57;;;16.10;99.90;;;;;;5054391;28;20465;-81
2021/06/15 04:43:00;;;;;;;5.17;3.80;;;16.10;99.90;;;;;;5054626;28;20469;-81
2021/06/15 04:45:32;;;;;;;5.40;4.13;;;16.20;99.90;;;;;;5054645;28;20438;-81
2021/06/15 04:48:04;;;;;;;7.53;4.00;;;16.20;99.90;;;;;;5054277;28;20430;-81
2021/06/15 04:50:32;;;;;;;4.60;4.20;;;16.20;99.90;;;;;;5054286;28;20833;-81
2021/06/15 04:53:03;;;;;;;8.63;4.63;;;16.30;99.90;;;;;;5054296;28;20489;-81
2021/06/15 04:55:35;;;;;;;4.60;3.87;;;16.30;99.90;;;;;;5054432;28;20442;-82
2021/06/15 04:58:03;;;;;;;5.10;4.17;;;16.30;99.90;;;;;;5054948;28;20438;-81
2021/06/15 05:00:31;;;;;;;5.47;3.90;;;16.40;99.90;;;;;;5054239;28;20933;-81
2021/06/15 05:02:59;;;;;;;6.00;4.60;;;16.40;99.90;;;;;;5054195;28;20462;-81
2021/06/15 05:05:26;;;;;;;5.17;4.67;;;16.40;99.90;;;;;;5053967;28;20441;-81
2021/06/15 05:07:57;;;;;;;6.90;4.57;;;16.50;99.90;;;;;;5054184;28;20454;-81
2021/06/15 05:10:26;;;;;;;5.93;4.40;;;16.50;99.90;;;;;;5054172;28;20437;-81
2021/06/15 05:12:54;;;;;;;5.97;4.50;;;16.60;99.90;;;;;;5053997;28;20507;-81
2021/06/15 05:15:26;;;;;;;4.83;4.23;;;16.70;99.90;;;;;;5054695;28;20477;-81
2021/06/15 05:17:54;;;;;;;5.13;4.50;;;16.70;99.90;;;;;;5054073;28;20437;-81
2021/06/15 05:20:23;;;;;;;7.53;4.40;;;16.80;99.90;;;;;;5053880;28;20440;-81
2021/06/15 05:22:58;;;;;;;7.67;4.17;;;16.90;99.90;;;;;;5053705;28;20973;-81
2021/06/15 05:25:26;;;;;;;5.27;4.87;;;16.90;99.90;;;;;;5053581;28;20940;-81
2021/06/15 05:27:53;;;;;;;4.57;4.17;;;17.00;99.90;;;;;;5053811;28;20457;-81
2021/06/15 05:30:21;;;;;;;4.07;3.67;;;17.10;99.90;;;;;;5053548;28;20434;-81
2021/06/15 05:32:47;;;;;;;4.10;3.80;;;17.20;99.90;;;;;;5053515;28;20474;-81
2021/06/15 05:35:14;;;;;;;3.83;3.53;;;17.30;99.90;;;;;;5053430;28;20445;-81
2021/06/15 05:37:42;;;;;;;7.70;4.30;;;17.40;99.90;;;;;;5053396;28;20445;-82
2021/06/15 05:40:11;;;;;;;4.07;3.67;;;17.60;99.90;;;;;;5053297;28;20474;-82
2021/06/15 05:42:39;;;;;;;5.50;4.63;;;17.70;99.90;;;;;;5054022;28;20473;-82
2021/06/15 05:45:07;;;;;;;4.73;3.97;;;17.80;99.90;;;;;;5053922;28;20445;-81
2021/06/15 05:47:35;;;;;;;6.33;4.40;;;18.00;99.90;;;;;;5054219;28;20448;-81
2021/06/15 05:50:02;;;;;;;5.43;4.43;;;18.10;99.90;;;;;;5054769;28;20941;-81
2021/06/15 05:52:30;;;;;;;6.60;4.27;;;18.30;99.90;;;;;;5053578;28;21024;-81
2021/06/15 05:54:59;;;;;;;4.17;3.87;;;18.50;99.90;;;;;;5053375;28;20547;-81
2021/06/15 05:57:26;;;;;;;3.90;3.53;;;18.70;99.90;;;;;;5053357;28;20441;-82
2021/06/15 05:59:54;;;;;;;4.07;3.17;;;18.80;99.90;;;;;;5053245;28;20793;-82
2021/06/15 06:02:21;;;;;;;4.30;3.90;;;19.00;99.90;;;;;;5053276;28;20473;-81
2021/06/15 06:05:01;;;;;;;3.47;3.10;;;19.20;99.90;;;;;;5053309;28;20434;-81
2021/06/15 06:10:21;;;;;;;4.63;3.20;;;19.70;99.90;;;;;;5005638;28;20433;-81
2021/06/15 06:12:48;;;;;;;3.80;3.50;;;20.10;99.90;;;;;;5052413;28;20505;-81
2021/06/15 06:15:17;;;;;;;3.70;3.40;;;20.40;99.90;;;;;;5052942;28;20943;-82
2021/06/15 06:17:44;;;;;;;4.80;3.30;;;20.70;99.90;;;;;;5053106;28;20453;-82
2021/06/15 06:20:13;;;;;;;3.37;3.17;;;21.00;99.90;;;;;;5052764;28;20944;-82
2021/06/15 06:22:41;;;;;;;5.00;2.95;;;21.40;99.90;;;;;;5053109;28;20226;-82
2021/06/15 06:25:13;;;;;;;3.38;3.17;;;21.70;99.90;;;;;;5052965;28;20203;-82
2021/06/15 06:27:44;;;;;;;4.20;3.22;;;22.10;99.90;;;;;;5053240;28;20610;-81
2021/06/15 06:30:11;;;;;;;4.25;3.10;;;22.80;99.90;;;;;;5053069;28;20199;-82
2021/06/15 06:32:40;;;;;;;3.60;3.40;;;23.30;99.90;;;;;;5052896;28;20638;-84
2021/06/15 06:35:09;;;;;;;2.90;2.70;;;23.90;99.90;;;;;;5052972;28;20209;-84
2021/06/15 06:37:36;;;;;;;3.67;3.47;;;24.50;99.90;;;;;;5052628;28;20217;-83
2021/06/15 06:40:06;;;;;;;3.10;2.90;;;24.70;99.90;;;;;;5052472;28;20246;-83
2021/06/15 06:42:33;;;;;;;2.97;2.78;;;25.20;99.90;;;;;;5052904;28;20280;-84
2021/06/15 06:45:00;;;;;;;2.90;2.80;;;25.50;97.60;;;;;;5052936;28;20187;-84
2021/06/15 06:47:27;;;;;;;3.00;2.90;;;25.80;96.20;;;;;;5052648;28;20191;-84
2021/06/15 06:49:55;;;;;;;2.83;2.63;;;25.70;95.30;;;;;;5053166;28;20195;-84
2021/06/15 06:52:22;;;;;;;3.05;2.95;;;25.80;94.80;;;;;;5052920;28;20223;-84
2021/06/15 06:54:48;;;;;;;3.25;2.95;;;25.70;93.60;;;;;;5052947;28;20225;-84
2021/06/15 06:57:15;;;;;;;3.20;3.00;;;25.80;93.00;;;;;;5052614;28;20201;-84
2021/06/15 06:59:42;;;;;;;2.90;2.72;;;26.00;91.50;;;;;;5053455;28;20216;-84
2021/06/15 07:02:09;;;;;;;2.92;2.70;;;26.00;91.30;;;;;;5052851;28;20239;-84
2021/06/15 07:04:35;;;;;;;3.10;2.85;;;25.90;91.20;;;;;;5052642;28;20214;-83
2021/06/15 07:07:04;;;;;;;3.47;2.97;;;25.60;91.90;;;;;;5052957;28;20631;-84
2021/06/15 07:09:31;;;;;;;3.17;2.88;;;25.60;92.30;;;;;;5052778;28;20197;-84
2021/06/15 07:11:57;;;;;;;3.35;3.15;;;25.30;92.10;;;;;;5052649;28;20253;-83
2021/06/15 07:14:24;;;;;;;3.50;2.75;;;25.20;91.10;;;;;;5052675;28;20673;-84
2021/06/15 07:16:51;;;;;;;3.50;2.88;;;25.20;91.80;;;;;;5052657;28;20203;-83
2021/06/15 07:19:18;;;;;;;2.85;2.53;;;25.20;92.40;;;;;;5052391;28;20674;-84
2021/06/15 07:21:44;;;;;;;3.35;3.00;;;25.30;92.40;;;;;;5053382;28;20223;-83
2021/06/15 07:24:12;;;;;;;3.00;2.80;;;25.50;90.00;;;;;;5054128;28;20206;-83
2021/06/15 07:26:39;;;;;;;3.50;3.25;;;25.80;90.20;;;;;;5056173;28;20367;-83
2021/06/15 07:29:06;;;;;;;2.67;2.58;;;26.10;88.90;;;;;;5056132;28;20191;-83
2021/06/15 07:31:34;;;;;;;2.80;2.47;;;26.60;89.10;;;;;;5056000;28;20203;-84
2021/06/15 07:34:01;;;;;;;5.28;3.05;;;26.70;86.80;;;;;;5055895;28;20216;-84
2021/06/15 07:36:28;;;;;;;4.65;3.05;;;27.30;85.20;;;;;;5055960;28;20199;-83
2021/06/15 07:38:54;;;;;;;2.53;2.33;;;28.00;79.70;;;;;;5055665;28;20239;-83
2021/06/15 07:41:22;;;;;;;2.58;2.47;;;28.80;78.20;;;;;;5055826;28;20189;-83
2021/06/15 07:43:49;;;;;;;3.10;2.90;;;29.50;75.00;;;;;;5055804;28;20216;-83
2021/06/15 07:46:16;;;;;;;3.47;2.42;;;29.90;70.50;;;;;;5055744;28;20195;-83
2021/06/15 07:48:43;;;;;;;2.88;2.67;;;30.20;68.40;;;;;;5056007;28;20192;-84
2021/06/15 07:51:10;;;;;;;2.80;2.60;;;30.40;67.70;;;;;;5055379;28;20211;-84
2021/06/15 07:53:36;;;;;;;2.67;2.58;;;30.50;62.40;;;;;;5055516;28;20226;-84
2021/06/15 07:56:03;;;;;;;2.70;2.60;;;30.40;63.40;;;;;;5055298;28;20611;-84
2021/06/15 07:58:31;;;;;;;3.42;2.97;;;30.70;64.80;;;;;;5055557;28;20195;-84
2021/06/15 08:00:58;;;;;;;2.80;2.60;;;31.50;61.20;;;;;;5055358;28;20191;-83
2021/06/15 08:03:25;;;;;;;2.85;2.63;;;32.20;58.30;;;;;;5055096;28;20262;-84
2021/06/15 08:05:52;;;;;;;3.20;3.00;;;33.10;55.40;;;;;;5055209;28;20191;-84
2021/06/15 08:08:20;;;;;;;5.40;2.60;;;34.00;54.20;;;;;;5055405;28;20189;-83
2021/06/15 08:10:46;;;;;;;2.63;2.42;;;34.80;50.40;;;;;;5055288;28;20194;-83
2021/06/15 08:13:13;;;;;;;2.63;2.42;;;35.80;48.50;;;;;;5055170;28;20218;-84
2021/06/15 08:15:41;;;;;;;2.55;2.45;;;36.70;47.90;;;;;;5054924;28;20218;-84
2021/06/15 08:18:08;;;;;;;2.13;2.03;;;37.60;46.90;;;;;;5055187;28;20195;-84
2021/06/15 08:20:35;;;;;;;2.33;2.22;;;38.50;44.50;;;;;;5056578;28;20190;-84
2021/06/15 08:23:02;;;;;;;2.70;2.50;;;39.10;43.30;;;;;;5054693;28;20218;-84
2021/06/15 08:25:29;;;;;;;2.33;2.13;;;39.50;41.00;;;;;;5055251;28;20534;-84
2021/06/15 08:27:56;;;;;;;3.05;2.75;;;39.90;37.60;;;;;;5056894;28;20615;-84
2021/06/15 08:30:23;;;;;;;2.08;2.08;;;39.80;38.30;;;;;;5054679;28;20647;-84
2021/06/15 08:32:51;;;;;;;2.67;2.58;;;39.10;37.80;;;;;;5054815;28;20226;-85
2021/06/15 08:35:18;;;;;;;2.85;2.72;;;38.40;40.00;;;;;;5054380;28;20211;-84
2021/06/15 08:37:45;;;;;;;3.35;3.05;;;38.00;38.60;;;;;;5054802;28;20195;-86
2021/06/15 08:40:12;;;;;;;2.72;2.63;;;37.40;40.60;;;;;;5054351;28;20235;-83
2021/06/15 08:42:40;;;;;;;3.65;3.08;;;37.40;40.60;;;;;;5054611;28;20222;-83
2021/06/15 08:45:09;;;;;;;3.35;3.03;;;37.50;40.00;;;;;;5054636;28;20709;-84
2021/06/15 08:47:38;;;;;;;2.95;2.65;;;37.30;40.30;;;;;;5054937;28;20202;-84
2021/06/15 08:50:08;;;;;;;3.10;2.92;;;37.10;39.90;;;;;;5054547;28;20231;-84
2021/06/15 08:52:36;;;;;;;3.38;3.08;;;36.60;41.70;;;;;;5054707;28;20223;-84
2021/06/15 08:55:03;;;;;;;3.05;2.80;;;35.70;41.00;;;;;;5054467;28;20211;-83
2021/06/15 08:57:30;;;;;;;3.35;3.03;;;34.70;42.50;;;;;;5054419;28;20207;-83
2021/06/15 09:00:00;;;;;;;2.60;2.50;;;34.00;44.00;;;;;;5054347;28;20203;-84
2021/06/15 09:02:27;;;;;;;3.20;2.90;;;33.50;43.40;;;;;;5053935;28;20318;-83
2021/06/15 09:04:54;;;;;;;3.58;2.78;;;32.90;43.40;;;;;;5053848;28;20226;-84
2021/06/15 09:07:22;;;;;;;2.25;2.10;;;32.70;43.20;;;;;;5054293;28;20204;-83
2021/06/15 09:09:51;;;;;;;3.35;3.00;;;32.20;44.80;;;;;;5054134;28;20210;-83
2021/06/15 09:12:20;;;;;;;4.65;2.72;;;31.80;45.20;;;;;;5054014;28;20225;-83
2021/06/15 09:14:49;;;;;;;2.58;2.45;;;31.50;46.90;;;;;;5053790;28;20653;-83
2021/06/15 09:17:18;;;;;;;3.90;2.65;;;31.20;47.00;;;;;;5054051;28;20209;-83
2021/06/15 09:19:46;;;;;;;2.72;2.53;;;31.10;47.80;;;;;;5053951;28;20290;-83
2021/06/15 09:22:25;;;;;;;2.35;2.25;;;31.00;47.70;;;;;;5053855;28;20595;-83
2021/06/15 09:24:53;;;;;;;4.07;3.40;;;30.80;47.80;;;;;;5054131;28;20224;-83
2021/06/15 09:27:20;;;;;;;2.83;2.70;;;30.60;49.30;;;;;;5053884;28;20291;-83
2021/06/15 09:29:50;;;;;;;2.60;2.47;;;30.30;49.30;;;;;;5053828;28;20198;-83
2021/06/15 09:32:19;;;;;;;2.70;2.60;;;30.20;50.90;;;;;;5053765;28;20219;-84
2021/06/15 09:34:58;;;;;;;2.67;2.47;;;30.00;50.70;;;;;;5053687;28;20212;-84
2021/06/15 09:37:46;;;;;;;2.47;2.35;;;30.00;50.60;;;;;;5053659;28;20197;-83
2021/06/15 09:40:15;;;;;;;2.63;2.53;;;30.10;49.50;;;;;;5053163;28;20238;-81
2021/06/15 09:42:56;;;;;;;2.90;2.60;;;30.20;48.60;;;;;;5053303;28;20219;-83
2021/06/15 09:45:25;;;;;;;3.20;2.90;;;30.20;48.00;;;;;;5053544;28;20644;-83
2021/06/15 09:47:53;;;;;;;2.40;2.28;;;30.30;48.50;;;;;;5052850;28;20195;-83
2021/06/15 09:50:22;;;;;;;2.47;2.38;;;30.10;49.10;;;;;;5053179;28;20592;-81
2021/06/15 09:52:51;;;;;;;2.95;2.75;;;30.20;48.60;;;;;;5053268;28;20254;-81
2021/06/15 09:55:21;;;;;;;2.50;2.40;;;30.40;47.30;;;;;;5053536;28;20187;-80
2021/06/15 09:57:51;;;;;;;3.58;2.25;;;30.20;48.10;;;;;;5053277;28;20708;-80
2021/06/15 10:00:19;;;;;;;2.85;2.72;;;30.00;48.70;;;;;;5053430;28;20187;-79
2021/06/15 10:02:51;;;;;;;2.72;2.58;;;29.90;49.40;;;;;;5053305;28;20225;-80
2021/06/15 10:05:24;;;;;;;2.72;2.53;;;29.80;50.30;;;;;;5053267;28;20215;-80
2021/06/15 10:07:52;;;;;;;3.00;2.80;;;29.80;51.10;;;;;;5053313;28;20190;-83
2021/06/15 10:10:21;;;;;;;2.95;2.75;;;30.00;50.20;;;;;;5054072;28;20191;-83
2021/06/15 10:12:48;;;;;;;3.67;3.38;;;30.00;51.10;;;;;;5053454;28;20338;-83
2021/06/15 10:15:16;;;;;;;3.28;2.78;;;29.90;51.30;;;;;;5053309;28;20186;-84
2021/06/15 10:17:45;;;;;;;2.97;2.88;;;29.90;52.30;;;;;;5053882;28;20287;-83
2021/06/15 10:20:14;;;;;;;5.15;3.65;;;30.10;51.60;;;;;;5053218;28;20352;-83
2021/06/15 10:22:43;;;;;;;3.47;3.28;;;30.00;52.50;;;;;;5053473;28;20228;-81
2021/06/15 10:25:13;;;;;;;3.35;3.10;;;30.00;50.60;;;;;;5053645;28;20216;-82
2021/06/15 10:27:40;;;;;;;3.38;3.17;;;30.00;51.30;;;;;;5054168;28;20190;-80
2021/06/15 10:30:09;;;;;;;4.20;3.90;;;30.00;51.20;;;;;;5053436;28;20554;-81
2021/06/15 10:32:49;;;;;;;3.33;3.10;;;29.90;52.50;;;;;;5053308;28;20216;-81
2021/06/15 10:35:36;;;;;;;2.67;2.58;;;30.00;52.90;;;;;;5053012;28;20290;-81
2021/06/15 10:38:03;;;;;;;2.67;2.38;;;30.30;50.60;;;;;;5053354;28;20211;-80
2021/06/15 10:40:37;;;;;;;3.60;3.30;;;30.40;49.70;;;;;;5053386;28;20246;-80
2021/06/15 10:43:21;;;;;;;3.13;2.92;;;30.30;50.90;;;;;;5052936;28;20215;-80
2021/06/15 10:45:51;;;;;;;3.40;3.20;;;30.10;50.30;;;;;;5052907;28;20674;-79
2021/06/15 10:48:43;;;;;;;2.90;2.70;;;29.90;50.50;;;;;;5052876;28;20183;-79
2021/06/15 10:51:34;;;;;;;4.93;3.05;;;29.70;51.90;;;;;;5052980;28;20256;-84
2021/06/15 10:54:03;;;;;;;3.08;2.88;;;29.70;50.30;;;;;;5052669;28;20193;-84
2021/06/15 10:56:33;;;;;;;3.55;2.90;;;29.80;52.60;;;;;;5053299;28;20199;-84
2021/06/15 10:59:09;;;;;;;3.15;2.95;;;29.80;52.60;;;;;;5057075;28;20187;-83
2021/06/15 11:01:40;;;;;;;3.28;2.92;;;29.90;51.60;;;;;;5056645;28;20663;-84
2021/06/15 11:04:08;;;;;;;2.97;2.78;;;30.00;49.70;;;;;;5056700;28;20183;-81
2021/06/15 11:06:49;;;;;;;5.05;3.22;;;30.00;49.40;;;;;;5056324;28;20207;-81
2021/06/15 11:09:22;;;;;;;3.22;2.85;;;29.90;50.50;;;;;;5056570;28;20191;-81
2021/06/15 11:12:07;;;;;;;3.80;3.13;;;29.70;50.50;;;;;;5056122;28;20632;-81
2021/06/15 11:14:34;;;;;;;2.85;2.75;;;29.80;49.50;;;;;;5056448;28;20666;-81
2021/06/15 11:17:01;;;;;;;2.88;2.58;;;29.60;50.70;;;;;;5056051;28;20191;-84
2021/06/15 11:19:38;;;;;;;3.45;3.00;;;29.50;53.50;;;;;;5056316;28;20188;-84
2021/06/15 11:22:12;;;;;;;2.90;2.70;;;29.50;52.90;;;;;;5056415;28;20263;-81
2021/06/15 11:24:49;;;;;;;2.83;2.72;;;29.40;53.50;;;;;;5056143;28;20209;-81
2021/06/15 11:27:32;;;;;;;3.40;3.20;;;29.50;53.40;;;;;;5056183;28;20253;-80
2021/06/15 11:30:18;;;;;;;2.92;2.72;;;29.60;52.70;;;;;;5055842;28;20551;-79
2021/06/15 11:32:56;;;;;;;2.58;2.47;;;29.60;50.80;;;;;;5055964;28;20229;-79
2021/06/15 11:35:23;;;;;;;2.97;2.78;;;29.60;49.00;;;;;;5056042;28;20194;-83
2021/06/15 11:37:52;;;;;;;2.80;2.60;;;29.50;50.10;;;;;;5056013;28;20191;-83
2021/06/15 11:40:22;;;;;;;4.20;2.65;;;29.40;50.40;;;;;;5055385;28;20639;-83
2021/06/15 11:42:51;;;;;;;3.47;3.08;;;29.40;50.30;;;;;;5055816;28;20235;-83
2021/06/15 11:45:33;;;;;;;3.53;3.22;;;29.40;49.40;;;;;;5055785;28;20207;-83
2021/06/15 11:48:20;;;;;;;2.67;2.55;;;29.20;49.80;;;;;;5056036;28;20198;-84
2021/06/15 11:50:49;;;;;;;3.10;2.90;;;29.10;50.30;;;;;;5055651;28;20655;-83
2021/06/15 11:53:18;;;;;;;3.20;3.00;;;29.10;50.20;;;;;;5055284;28;20722;-79
2021/06/15 11:55:46;;;;;;;2.70;2.58;;;28.90;52.60;;;;;;5055610;28;20270;-79
2021/06/15 11:58:16;;;;;;;2.75;2.60;;;28.90;52.20;;;;;;5055578;28;20211;-83
2021/06/15 12:00:45;;;;;;;6.10;3.30;;;29.00;51.40;;;;;;5056305;28;20210;-83
2021/06/15 12:03:14;;;;;;;2.53;2.42;;;29.00;52.30;;;;;;5055318;28;20219;-83
2021/06/15 12:05:42;;;;;;;3.03;2.83;;;29.00;51.80;;;;;;5055380;28;20222;-83
2021/06/15 12:08:09;;;;;;;4.00;3.17;;;29.00;50.40;;;;;;5055398;28;20206;-83
2021/06/15 12:10:37;;;;;;;2.90;2.80;;;29.00;51.90;;;;;;5054475;28;20206;-83
2021/06/15 12:13:07;;;;;;;2.50;2.30;;;28.90;52.10;;;;;;5054920;28;20223;-80
2021/06/15 12:15:49;;;;;;;2.83;2.70;;;28.80;50.50;;;;;;5055409;28;20538;-81
2021/06/15 12:18:40;;;;;;;2.65;2.45;;;28.80;51.90;;;;;;5054957;28;20653;-80
2021/06/15 12:21:10;;;;;;;2.85;2.65;;;28.60;51.20;;;;;;5054832;28;20293;-80
2021/06/15 12:23:40;;;;;;;2.85;2.65;;;28.50;51.70;;;;;;5055607;28;20661;-83
2021/06/15 12:26:16;;;;;;;2.70;2.38;;;28.40;52.70;;;;;;5054808;28;20596;-84
2021/06/15 12:28:44;;;;;;;3.38;3.17;;;28.40;53.80;;;;;;5055077;28;20186;-83
2021/06/15 12:31:16;;;;;;;2.88;2.47;;;28.40;52.20;;;;;;5056441;28;20262;-82
2021/06/15 12:33:44;;;;;;;2.50;2.40;;;28.30;52.40;;;;;;5054506;28;20419;-83
2021/06/15 12:36:13;;;;;;;2.55;2.35;;;28.40;51.80;;;;;;5055066;28;20205;-84
2021/06/15 12:38:42;;;;;;;2.75;2.65;;;28.40;51.20;;;;;;5054532;28;20203;-83
2021/06/15 12:41:11;;;;;;;3.00;2.80;;;28.50;52.00;;;;;;5055035;28;20210;-83
2021/06/15 12:43:39;;;;;;;2.35;2.22;;;28.40;53.10;;;;;;5054291;28;20218;-83
2021/06/15 12:46:27;;;;;;;2.90;2.70;;;28.30;53.00;;;;;;5054218;28;20716;-83
2021/06/15 12:48:56;;;;;;;2.63;2.53;;;28.20;53.60;;;;;;5054521;28;20238;-81
2021/06/15 12:51:26;;;;;;;2.47;2.38;;;28.20;53.80;;;;;;5054192;28;20194;-81
2021/06/15 12:53:53;;;;;;;2.20;2.08;;;28.20;52.60;;;;;;5054275;28;20674;-83
2021/06/15 12:56:23;;;;;;;6.05;2.70;;;28.30;50.40;;;;;;5054185;28;20194;-83
2021/06/15 12:58:52;;;;;;;2.47;2.38;;;28.10;52.40;;;;;;5054406;28;20180;-83
2021/06/15 13:01:22;;;;;;;2.38;2.28;;;28.00;53.10;;;;;;5054700;28;20673;-83
2021/06/15 13:03:52;;;;;;;2.45;2.35;;;27.90;54.10;;;;;;5055114;28;20199;-83